Time;durP1;ratioP1;P1;durP2;ratioP2;P2;SDS_P1;SDS_P2;PMS_P1;PMS_P2;Temp;Humidity;BMP_temperature;BMP_pressure;BME280_temperature;BME280_humidity;BME280_pressure;Samples;Min_cycle;Max_cycle;Signal;HPM_P1;HPM_P2
2022/08/26 00:00:44;;;;;;;12.93;7.10;;;22.30;99.90;;;;;;4994865;28;20243;-92
2022/08/26 00:03:11;;;;;;;9.93;6.97;;;22.20;99.90;;;;;;4995171;28;20184;-95
2022/08/26 00:05:38;;;;;;;11.02;7.18;;;22.30;99.90;;;;;;4995137;28;20230;-94
2022/08/26 00:08:23;;;;;;;11.30;6.82;;;22.30;99.90;;;;;;4995274;28;20203;-94
2022/08/26 00:10:48;;;;;;;11.55;6.70;;;22.20;99.90;;;;;;4995542;28;20187;-94
2022/08/26 00:13:14;;;;;;;10.55;6.55;;;22.20;99.90;;;;;;4995077;28;20522;-94
2022/08/26 00:15:41;;;;;;;12.00;6.55;;;22.10;99.90;;;;;;4994781;28;20291;-94
2022/08/26 00:18:07;;;;;;;13.68;7.30;;;22.10;99.90;;;;;;4994786;28;20290;-93
2022/08/26 00:20:33;;;;;;;14.07;7.30;;;22.00;99.90;;;;;;4994509;28;20187;-92
2022/08/26 00:23:00;;;;;;;20.23;7.80;;;22.00;99.90;;;;;;4994856;28;20183;-92
2022/08/26 00:25:26;;;;;;;14.48;7.18;;;22.00;99.90;;;;;;4994685;28;20219;-93
2022/08/26 00:27:52;;;;;;;11.48;7.35;;;22.00;99.90;;;;;;4994931;28;20251;-93
2022/08/26 00:30:25;;;;;;;14.77;7.57;;;22.00;99.90;;;;;;4994152;28;20635;-95
2022/08/26 00:32:51;;;;;;;17.30;7.57;;;22.00;99.90;;;;;;4995066;28;20242;-94
2022/08/26 00:35:17;;;;;;;15.27;7.13;;;21.90;99.90;;;;;;4994633;28;20192;-93
2022/08/26 00:37:44;;;;;;;14.35;7.13;;;21.90;99.90;;;;;;4994654;28;20299;-92
2022/08/26 00:40:14;;;;;;;12.45;7.45;;;21.90;99.90;;;;;;4994690;28;20179;-92
2022/08/26 00:42:39;;;;;;;17.38;7.18;;;21.90;99.90;;;;;;4995859;28;20206;-93
2022/08/26 00:45:06;;;;;;;14.70;7.07;;;21.90;99.90;;;;;;5010801;28;20212;-92
2022/08/26 00:47:42;;;;;;;16.25;7.38;;;21.90;99.90;;;;;;4994320;28;20318;-93
2022/08/26 00:50:13;;;;;;;14.00;7.50;;;21.90;99.90;;;;;;4994157;28;20219;-93
2022/08/26 00:52:39;;;;;;;10.95;7.78;;;21.90;99.90;;;;;;5420374;23;20195;-92
2022/08/26 00:55:23;;;;;;;16.27;7.50;;;21.80;99.90;;;;;;4966620;28;20299;-95
2022/08/26 00:57:49;;;;;;;11.65;7.05;;;21.80;99.90;;;;;;4976692;28;20207;-94
2022/08/26 01:00:23;;;;;;;16.50;8.57;;;21.70;99.90;;;;;;4995728;28;20175;-95
2022/08/26 01:02:49;;;;;;;17.08;7.97;;;21.70;99.90;;;;;;4977973;28;20626;-96
2022/08/26 01:05:16;;;;;;;11.27;7.03;;;21.60;99.90;;;;;;4978946;28;20234;-96
2022/08/26 01:07:42;;;;;;;16.38;8.00;;;21.50;99.90;;;;;;4980176;28;20172;-96
2022/08/26 01:10:17;;;;;;;13.38;7.47;;;21.60;99.90;;;;;;4978939;28;20280;-96
2022/08/26 01:12:48;;;;;;;16.73;7.82;;;21.60;99.90;;;;;;4981272;28;20662;-96
2022/08/26 01:15:28;;;;;;;12.82;7.32;;;21.50;99.90;;;;;;4979793;28;20686;-96
2022/08/26 01:17:54;;;;;;;17.33;8.07;;;21.50;99.90;;;;;;4980902;28;20175;-95
2022/08/26 01:20:49;;;;;;;14.73;8.32;;;21.50;99.90;;;;;;4978899;28;20213;-95
2022/08/26 01:23:15;;;;;;;11.23;8.02;;;21.50;99.90;;;;;;4978685;28;20610;-96
2022/08/26 01:25:45;;;;;;;13.73;7.57;;;21.50;99.90;;;;;;4978905;28;20224;-96
2022/08/26 01:28:16;;;;;;;17.58;8.45;;;21.40;99.90;;;;;;4981613;28;20179;-92
2022/08/26 01:30:44;;;;;;;14.65;8.27;;;21.40;99.90;;;;;;4995414;28;20176;-93
2022/08/26 01:33:17;;;;;;;11.23;7.57;;;21.40;99.90;;;;;;4994779;28;20241;-92
2022/08/26 01:35:45;;;;;;;15.13;7.95;;;21.40;99.90;;;;;;4999583;28;20175;-94
2022/08/26 01:38:12;;;;;;;12.95;7.70;;;21.40;99.90;;;;;;5008315;28;20179;-92
2022/08/26 01:40:41;;;;;;;15.55;7.10;;;21.40;99.90;;;;;;5000982;28;20238;-96
2022/08/26 01:43:13;;;;;;;14.32;7.65;;;21.50;99.90;;;;;;4997821;28;20171;-96
2022/08/26 01:45:40;;;;;;;15.50;7.65;;;21.40;99.90;;;;;;4997857;28;20206;-93
2022/08/26 01:48:10;;;;;;;12.35;7.68;;;21.40;99.90;;;;;;4997235;28;20171;-95
2022/08/26 01:50:38;;;;;;;15.18;7.93;;;21.40;99.90;;;;;;4997141;28;20179;-94
2022/08/26 01:53:08;;;;;;;14.10;8.07;;;21.40;99.90;;;;;;4986876;28;20223;-93
2022/08/26 01:55:38;;;;;;;15.63;8.10;;;21.40;99.90;;;;;;4998139;28;20207;-95
2022/08/26 01:58:06;;;;;;;15.77;7.90;;;21.30;99.90;;;;;;4997318;28;20172;-94
2022/08/26 02:00:34;;;;;;;15.55;8.25;;;21.30;99.90;;;;;;4996933;28;20672;-93
2022/08/26 02:03:16;;;;;;;12.45;8.57;;;21.30;99.90;;;;;;4981279;28;20627;-92
2022/08/26 02:05:46;;;;;;;15.18;8.25;;;21.20;99.90;;;;;;4981455;28;20203;-92
2022/08/26 02:08:12;;;;;;;13.05;7.63;;;21.20;99.90;;;;;;4981387;28;20168;-92
2022/08/26 02:10:38;;;;;;;10.30;7.53;;;21.10;99.90;;;;;;4981131;28;20279;-92
2022/08/26 02:13:07;;;;;;;13.43;8.23;;;21.20;99.90;;;;;;4981243;28;20287;-93
2022/08/26 02:15:33;;;;;;;16.52;7.78;;;21.10;99.90;;;;;;4981133;28;20191;-93
2022/08/26 02:18:01;;;;;;;12.30;8.82;;;21.10;99.90;;;;;;4981748;28;20518;-93
2022/08/26 02:20:27;;;;;;;12.93;7.80;;;21.10;99.90;;;;;;4981468;28;20207;-92
2022/08/26 02:22:52;;;;;;;12.05;8.50;;;21.00;99.90;;;;;;4981268;28;20226;-93
2022/08/26 02:25:34;;;;;;;12.02;8.43;;;20.90;99.90;;;;;;4981770;28;20646;-93
2022/08/26 02:28:00;;;;;;;14.02;8.55;;;20.90;99.90;;;;;;4983350;28;20191;-93
2022/08/26 02:30:31;;;;;;;13.55;8.13;;;20.80;99.90;;;;;;4982056;28;20184;-93
2022/08/26 02:33:03;;;;;;;13.82;8.73;;;20.80;99.90;;;;;;4980447;28;20515;-93
2022/08/26 02:35:31;;;;;;;14.32;8.90;;;20.70;99.90;;;;;;4980789;28;20194;-93
2022/08/26 02:37:57;;;;;;;20.40;9.30;;;20.60;99.90;;;;;;4980671;28;20168;-93
2022/08/26 02:40:27;;;;;;;14.60;8.23;;;20.60;99.90;;;;;;4980658;28;20203;-95
2022/08/26 02:42:53;;;;;;;15.90;8.73;;;20.70;99.90;;;;;;4980854;28;20191;-94
2022/08/26 02:45:19;;;;;;;13.80;8.45;;;20.70;99.90;;;;;;4980216;28;20556;-94
2022/08/26 02:47:46;;;;;;;15.40;9.07;;;20.60;99.90;;;;;;4979270;28;20187;-93
2022/08/26 02:50:13;;;;;;;17.52;9.45;;;20.60;99.90;;;;;;4981230;28;20180;-94
2022/08/26 02:52:39;;;;;;;11.65;8.35;;;20.60;99.90;;;;;;4980455;28;20183;-94
2022/08/26 02:55:06;;;;;;;14.15;8.43;;;20.60;99.90;;;;;;4980795;28;20184;-93
2022/08/26 02:57:32;;;;;;;12.35;8.45;;;20.60;99.90;;;;;;4980277;28;20618;-93
2022/08/26 02:59:59;;;;;;;14.32;8.13;;;20.50;99.90;;;;;;4979676;28;20183;-93
2022/08/26 03:02:26;;;;;;;15.65;8.55;;;20.50;99.90;;;;;;4980301;28;20675;-93
2022/08/26 03:04:52;;;;;;;16.02;8.50;;;20.60;99.90;;;;;;4980131;28;20223;-93
2022/08/26 03:07:19;;;;;;;14.18;8.73;;;20.60;99.90;;;;;;4997751;28;20554;-94
2022/08/26 03:09:45;;;;;;;12.82;8.68;;;20.50;99.90;;;;;;4980184;28;20510;-95
2022/08/26 03:12:10;;;;;;;16.48;9.07;;;20.50;99.90;;;;;;4980087;28;20606;-93
2022/08/26 03:14:37;;;;;;;15.90;8.50;;;20.50;99.90;;;;;;4978539;28;20267;-95
2022/08/26 03:17:03;;;;;;;16.95;8.73;;;20.50;99.90;;;;;;4980370;28;20186;-95
2022/08/26 03:19:30;;;;;;;14.50;8.90;;;20.40;99.90;;;;;;4983913;28;20175;-96
2022/08/26 03:21:57;;;;;;;16.02;8.70;;;20.40;99.90;;;;;;4981822;28;20175;-96
2022/08/26 03:24:23;;;;;;;11.73;8.57;;;20.30;99.90;;;;;;4984979;28;20211;-95
2022/08/26 03:26:50;;;;;;;18.90;9.50;;;20.30;99.90;;;;;;4983062;28;20180;-96
2022/08/26 03:32:00;;;;;;;15.40;8.77;;;20.30;99.90;;;;;;4997325;28;20175;-95
2022/08/26 03:34:26;;;;;;;12.02;8.77;;;20.30;99.90;;;;;;4979694;28;20211;-94
2022/08/26 03:36:52;;;;;;;16.60;8.63;;;20.30;99.90;;;;;;4979717;28;20233;-93
2022/08/26 03:39:18;;;;;;;17.90;8.40;;;20.30;99.90;;;;;;4979263;28;20516;-94
2022/08/26 03:41:44;;;;;;;12.68;8.30;;;20.30;99.90;;;;;;4979399;28;20188;-93
2022/08/26 03:44:11;;;;;;;15.80;9.27;;;20.40;99.90;;;;;;4990130;28;20187;-95
2022/08/26 03:46:37;;;;;;;14.77;8.85;;;20.40;99.90;;;;;;4998726;28;20186;-93
2022/08/26 03:49:04;;;;;;;11.93;8.60;;;20.40;99.90;;;;;;4998978;28;20676;-94
2022/08/26 03:51:31;;;;;;;14.63;8.55;;;20.40;99.90;;;;;;4998933;28;20186;-94
2022/08/26 03:53:59;;;;;;;18.92;7.97;;;20.30;99.90;;;;;;4995012;28;20231;-93
2022/08/26 03:56:26;;;;;;;15.10;9.20;;;20.30;99.90;;;;;;4994699;28;20215;-95
2022/08/26 03:58:52;;;;;;;17.10;8.45;;;20.30;99.90;;;;;;5000462;28;20180;-96
2022/08/26 04:01:18;;;;;;;14.05;9.50;;;20.30;99.90;;;;;;4981829;28;20627;-96
2022/08/26 04:03:58;;;;;;;16.20;9.27;;;20.20;99.90;;;;;;4984953;28;20181;-96
2022/08/26 04:06:35;;;;;;;17.23;9.25;;;20.10;99.90;;;;;;4975560;28;20283;-95
2022/08/26 04:09:05;;;;;;;22.13;9.05;;;20.00;99.90;;;;;;4974840;28;20647;-94
2022/08/26 04:11:32;;;;;;;13.73;8.80;;;20.00;99.90;;;;;;4975016;28;20188;-93
2022/08/26 04:14:01;;;;;;;12.32;8.00;;;20.00;99.90;;;;;;4974806;28;20215;-94
2022/08/26 04:16:28;;;;;;;16.42;9.50;;;20.10;99.90;;;;;;4975083;28;20189;-96
2022/08/26 04:18:58;;;;;;;14.70;9.40;;;20.10;99.90;;;;;;4981844;28;20204;-96
2022/08/26 04:21:25;;;;;;;21.83;9.07;;;20.00;99.90;;;;;;4987744;28;20199;-95
2022/08/26 04:23:51;;;;;;;19.83;9.35;;;20.00;99.90;;;;;;4998917;28;20172;-96
2022/08/26 04:26:19;;;;;;;15.77;9.40;;;19.90;99.90;;;;;;5002162;28;20266;-96
2022/08/26 04:28:45;;;;;;;12.57;8.50;;;19.80;99.90;;;;;;4995859;28;20179;-96
2022/08/26 04:31:15;;;;;;;12.30;8.88;;;19.90;99.90;;;;;;4994416;28;20191;-93
2022/08/26 04:33:42;;;;;;;14.68;8.80;;;19.90;99.90;;;;;;4994020;28;20291;-93
2022/08/26 04:36:09;;;;;;;13.05;8.70;;;19.90;99.90;;;;;;4978421;28;20184;-94
2022/08/26 04:38:34;;;;;;;13.15;8.52;;;20.00;99.90;;;;;;4976200;28;20173;-94
2022/08/26 04:41:02;;;;;;;15.43;9.10;;;19.90;99.90;;;;;;4976787;28;20181;-92
2022/08/26 04:43:29;;;;;;;17.17;9.13;;;20.00;99.90;;;;;;4984254;28;20566;-95
2022/08/26 04:46:03;;;;;;;15.75;8.70;;;20.00;99.90;;;;;;4977957;28;20247;-94
2022/08/26 04:48:30;;;;;;;17.23;9.07;;;20.00;99.90;;;;;;4974664;28;20177;-94
2022/08/26 04:50:57;;;;;;;13.50;8.63;;;20.10;99.90;;;;;;4974917;28;20235;-95
2022/08/26 04:53:23;;;;;;;12.32;8.55;;;20.10;99.90;;;;;;4933811;28;1198710;-94
2022/08/26 04:55:48;;;;;;;15.55;8.80;;;20.10;99.90;;;;;;4975345;28;20180;-94
2022/08/26 04:58:17;;;;;;;13.98;9.25;;;20.10;99.90;;;;;;4976849;28;20573;-95
2022/08/26 05:00:48;;;;;;;18.40;8.80;;;20.10;99.90;;;;;;4975232;28;20626;-94
2022/08/26 05:03:16;;;;;;;13.68;8.40;;;20.10;99.90;;;;;;4974643;28;20188;-94
2022/08/26 05:05:43;;;;;;;16.60;8.93;;;20.10;99.90;;;;;;4975148;28;20703;-93
2022/08/26 05:08:12;;;;;;;13.77;8.85;;;20.10;99.90;;;;;;4975455;28;20218;-96
2022/08/26 05:10:47;;;;;;;17.30;9.13;;;20.20;99.90;;;;;;4982803;28;20191;-96
2022/08/26 05:13:16;;;;;;;17.02;8.90;;;20.10;99.90;;;;;;4991068;28;20183;-96
2022/08/26 05:15:43;;;;;;;17.88;9.40;;;20.10;99.90;;;;;;5003898;28;20180;-96
2022/08/26 05:18:12;;;;;;;18.73;9.50;;;20.10;99.90;;;;;;5006582;28;20180;-96
2022/08/26 05:20:40;;;;;;;20.08;10.25;;;20.20;99.90;;;;;;4984824;28;20191;-96
2022/08/26 05:23:10;;;;;;;13.00;8.38;;;20.20;99.90;;;;;;5015009;23;20244;-92
2022/08/26 05:25:52;;;;;;;16.35;9.38;;;20.30;99.90;;;;;;4993409;28;20200;-92
2022/08/26 05:28:19;;;;;;;17.42;8.90;;;20.30;99.90;;;;;;4993206;28;20650;-92
2022/08/26 05:30:48;;;;;;;15.80;8.77;;;20.40;99.90;;;;;;4993125;28;20246;-93
2022/08/26 05:33:16;;;;;;;21.20;8.75;;;20.40;99.90;;;;;;4995304;28;20654;-94
2022/08/26 05:35:56;;;;;;;16.48;8.48;;;20.40;99.90;;;;;;4993046;28;20168;-93
2022/08/26 05:38:23;;;;;;;14.88;9.05;;;20.50;99.90;;;;;;4994109;28;20176;-93
2022/08/26 05:40:50;;;;;;;14.05;8.55;;;20.50;99.90;;;;;;4997667;28;20196;-93
2022/08/26 05:43:17;;;;;;;15.25;8.77;;;20.60;99.90;;;;;;4997247;28;20631;-93
2022/08/26 05:45:46;;;;;;;14.20;9.50;;;20.60;99.90;;;;;;4997318;28;20214;-93
2022/08/26 05:48:14;;;;;;;16.20;9.52;;;20.60;99.90;;;;;;4996998;28;20188;-93
2022/08/26 05:50:45;;;;;;;19.52;9.70;;;20.70;99.90;;;;;;4996905;28;20255;-93
2022/08/26 05:53:20;;;;;;;17.65;9.00;;;20.70;99.90;;;;;;4998268;28;20175;-93
2022/08/26 05:55:51;;;;;;;19.52;9.90;;;20.80;99.90;;;;;;4996735;28;20266;-93
2022/08/26 05:58:19;;;;;;;20.52;9.60;;;20.80;99.90;;;;;;4997048;28;20172;-93
2022/08/26 06:00:48;;;;;;;17.73;8.77;;;20.90;99.90;;;;;;4996491;28;20226;-93
2022/08/26 06:03:14;;;;;;;14.75;9.23;;;20.90;99.90;;;;;;4996998;28;20180;-92
2022/08/26 06:05:40;;;;;;;14.25;9.85;;;21.00;99.90;;;;;;4996394;28;20208;-90
2022/08/26 06:08:17;;;;;;;19.55;8.68;;;21.00;99.90;;;;;;4996998;28;20553;-91
2022/08/26 06:10:58;;;;;;;18.48;8.40;;;21.10;99.90;;;;;;4996877;28;20282;-92
2022/08/26 06:13:26;;;;;;;16.17;9.13;;;21.10;99.90;;;;;;4996592;28;20635;-91
2022/08/26 06:15:53;;;;;;;20.65;8.68;;;21.20;99.90;;;;;;4995962;28;20533;-92
2022/08/26 06:18:26;;;;;;;12.35;8.23;;;21.30;99.90;;;;;;4996986;28;20179;-91
2022/08/26 06:20:53;;;;;;;17.30;10.45;;;21.30;99.90;;;;;;4996394;28;20242;-91
2022/08/26 06:26:06;;;;;;;15.32;9.13;;;21.50;99.90;;;;;;4997402;28;20272;-92
2022/08/26 06:28:32;;;;;;;15.05;8.18;;;21.50;99.90;;;;;;4996848;28;20267;-91
2022/08/26 06:31:00;;;;;;;18.40;8.30;;;21.40;99.90;;;;;;4996732;28;20223;-91
2022/08/26 06:33:27;;;;;;;17.02;8.85;;;21.50;99.90;;;;;;4997141;28;20183;-91
2022/08/26 06:35:54;;;;;;;15.32;8.70;;;21.50;99.90;;;;;;4996314;28;20180;-92
2022/08/26 06:38:21;;;;;;;13.73;8.48;;;21.50;99.90;;;;;;4997486;28;20225;-91
2022/08/26 06:40:50;;;;;;;22.85;10.02;;;21.60;99.90;;;;;;5002659;28;20211;-91
2022/08/26 06:43:19;;;;;;;13.65;7.50;;;21.70;99.90;;;;;;5007987;28;20191;-91
2022/08/26 06:45:46;;;;;;;15.85;7.68;;;21.70;99.90;;;;;;5007698;28;20282;-91
2022/08/26 06:48:18;;;;;;;12.98;7.78;;;21.80;99.90;;;;;;5004506;28;20207;-91
2022/08/26 06:50:44;;;;;;;17.05;8.40;;;21.90;99.90;;;;;;4996212;28;20285;-91
2022/08/26 06:53:12;;;;;;;12.50;8.38;;;22.00;99.90;;;;;;4996511;28;20168;-91
2022/08/26 06:55:46;;;;;;;12.88;8.32;;;22.00;99.90;;;;;;4996174;28;20255;-90
2022/08/26 06:58:13;;;;;;;19.95;9.30;;;22.10;99.90;;;;;;4996147;28;20172;-93
2022/08/26 07:00:39;;;;;;;16.27;8.65;;;22.10;99.90;;;;;;4995853;28;20211;-92
2022/08/26 07:03:06;;;;;;;17.73;8.40;;;22.20;99.90;;;;;;4996225;28;20168;-93
2022/08/26 07:05:39;;;;;;;19.92;7.88;;;22.30;99.90;;;;;;4996068;28;20667;-91
2022/08/26 07:08:05;;;;;;;14.70;8.68;;;22.40;99.90;;;;;;4996346;28;20187;-92
2022/08/26 07:10:32;;;;;;;18.13;8.00;;;22.50;99.90;;;;;;4980018;28;20248;-91
2022/08/26 07:12:59;;;;;;;13.38;7.95;;;22.50;99.90;;;;;;4996669;28;20283;-91
2022/08/26 07:15:25;;;;;;;12.88;7.75;;;22.60;99.90;;;;;;4995824;28;20176;-91
2022/08/26 07:17:51;;;;;;;14.02;7.40;;;22.70;99.90;;;;;;4995849;28;20180;-92
2022/08/26 07:20:20;;;;;;;10.38;6.90;;;22.80;99.90;;;;;;4996057;28;20334;-92
2022/08/26 07:22:48;;;;;;;14.85;7.97;;;22.80;99.90;;;;;;4998117;28;20267;-92
2022/08/26 07:25:14;;;;;;;17.02;7.50;;;22.90;99.90;;;;;;4998098;28;20292;-90
2022/08/26 07:27:41;;;;;;;13.68;7.72;;;23.00;99.90;;;;;;4998739;28;20237;-93
2022/08/26 07:30:08;;;;;;;13.77;7.13;;;23.10;99.90;;;;;;4999270;28;20215;-93
2022/08/26 07:32:38;;;;;;;17.67;8.25;;;23.30;99.90;;;;;;5001519;28;20183;-93
2022/08/26 07:35:13;;;;;;;22.70;8.10;;;23.40;99.90;;;;;;4983999;28;20183;-94
2022/08/26 07:37:41;;;;;;;22.15;8.45;;;23.50;99.90;;;;;;4997683;28;20222;-91
2022/08/26 07:40:10;;;;;;;16.98;7.75;;;23.60;99.90;;;;;;4998438;28;20234;-92
2022/08/26 07:42:37;;;;;;;17.67;7.70;;;23.80;99.90;;;;;;4998568;28;20180;-91
2022/08/26 07:45:10;;;;;;;18.63;7.93;;;23.90;99.90;;;;;;4997730;28;20736;-93
2022/08/26 07:47:37;;;;;;;18.98;7.68;;;24.00;99.90;;;;;;4997972;28;20518;-92
2022/08/26 07:50:10;;;;;;;18.77;7.43;;;24.10;99.90;;;;;;4998372;28;20206;-91
2022/08/26 07:52:37;;;;;;;16.27;7.15;;;24.20;99.90;;;;;;4998184;28;20178;-92
2022/08/26 07:55:18;;;;;;;19.90;7.90;;;24.30;99.90;;;;;;4998668;28;20171;-92
2022/08/26 07:57:45;;;;;;;16.83;7.82;;;24.40;99.90;;;;;;4998144;28;20205;-92
2022/08/26 08:00:15;;;;;;;15.50;7.25;;;24.50;99.90;;;;;;4998184;28;20289;-92
2022/08/26 08:02:43;;;;;;;21.38;7.78;;;24.70;99.90;;;;;;4997495;28;20194;-91
2022/08/26 08:05:12;;;;;;;18.67;7.53;;;24.80;99.90;;;;;;4997835;28;20209;-93
2022/08/26 08:07:44;;;;;;;20.27;6.75;;;25.00;99.90;;;;;;4998387;28;20175;-92
2022/08/26 08:10:14;;;;;;;13.18;6.78;;;25.20;99.90;;;;;;4998244;28;20195;-92
2022/08/26 08:12:41;;;;;;;17.00;7.07;;;25.20;99.90;;;;;;4998544;28;20171;-93
2022/08/26 08:15:23;;;;;;;21.73;7.45;;;25.40;99.90;;;;;;4998429;28;20187;-91
2022/08/26 08:18:08;;;;;;;18.77;7.25;;;25.60;99.90;;;;;;4996988;28;20190;-93
2022/08/26 08:20:34;;;;;;;14.57;7.25;;;25.70;99.90;;;;;;4997687;28;20199;-92
2022/08/26 08:23:03;;;;;;;21.30;6.88;;;25.70;99.90;;;;;;4992637;28;20219;-91
2022/08/26 08:25:32;;;;;;;16.40;7.35;;;25.60;99.90;;;;;;4983716;28;20199;-91
2022/08/26 08:27:58;;;;;;;18.98;6.90;;;25.60;99.90;;;;;;4992788;28;20632;-92
2022/08/26 08:30:38;;;;;;;;;;;;;;;;;;;;;
2022/08/26 08:33:20;;;;;;;18.15;7.32;;;25.50;99.90;;;;;;4995530;28;20168;-91
2022/08/26 08:35:53;;;;;;;19.77;7.07;;;25.50;99.90;;;;;;4977816;28;20168;-92
2022/08/26 08:38:22;;;;;;;20.77;7.32;;;25.50;99.90;;;;;;4978004;28;20175;-91
2022/08/26 08:40:48;;;;;;;24.60;7.65;;;25.50;99.90;;;;;;4977828;28;20288;-92
2022/08/26 08:43:26;;;;;;;20.98;7.78;;;25.50;99.90;;;;;;4977798;28;20195;-93
2022/08/26 08:46:10;;;;;;;26.20;7.65;;;25.50;99.90;;;;;;4977365;28;20207;-92
2022/08/26 08:48:46;;;;;;;21.00;7.32;;;25.60;99.90;;;;;;4977637;28;20674;-92
2022/08/26 08:52:06;;;;;;;18.80;7.40;;;25.60;99.90;;;;;;4977449;28;20203;-93
2022/08/26 08:54:40;;;;;;;19.13;7.10;;;25.70;99.90;;;;;;4957259;28;20191;-92
2022/08/26 08:57:23;;;;;;;22.70;7.93;;;25.70;99.90;;;;;;4977400;28;20188;-90
2022/08/26 09:00:14;;;;;;;18.95;7.18;;;25.70;99.90;;;;;;4977199;28;20700;-92
2022/08/26 09:03:11;;;;;;;15.98;6.90;;;25.80;99.90;;;;;;4978159;28;20717;-91
2022/08/26 09:05:51;;;;;;;28.27;7.93;;;25.90;99.90;;;;;;4990026;28;20222;-93
2022/08/26 09:08:22;;;;;;;18.23;7.20;;;26.00;99.90;;;;;;4997022;28;20163;-92
2022/08/26 09:10:59;;;;;;;24.15;7.28;;;26.10;99.90;;;;;;4996718;28;20675;-91
2022/08/26 09:13:57;;;;;;;18.77;7.05;;;26.10;99.90;;;;;;4996512;28;20594;-92
2022/08/26 09:17:17;;;;;;;23.58;6.85;;;26.10;99.90;;;;;;4996205;28;20620;-92
2022/08/26 09:20:13;;;;;;;19.10;6.78;;;26.10;99.90;;;;;;4996447;28;20206;-92
2022/08/26 09:22:43;;;;;;;25.42;7.07;;;26.00;99.90;;;;;;4996467;28;20171;-91
2022/08/26 09:25:13;;;;;;;22.45;7.85;;;26.00;99.90;;;;;;4996074;28;20191;-92
2022/08/26 09:27:49;;;;;;;22.40;7.18;;;26.00;99.90;;;;;;4996960;28;20171;-91
2022/08/26 09:30:44;;;;;;;;;;;;;;;;;;;;;
2022/08/26 09:33:17;;;;;;;17.17;6.88;;;26.00;99.90;;;;;;5013799;28;20186;-92
2022/08/26 09:35:56;;;;;;;22.15;7.43;;;26.00;99.90;;;;;;4996701;28;20190;-92
2022/08/26 09:38:47;;;;;;;19.85;7.32;;;26.10;99.90;;;;;;4996483;28;20278;-91
2022/08/26 09:41:30;;;;;;;14.73;6.90;;;26.00;99.90;;;;;;4996546;28;20593;-91
2022/08/26 09:44:27;;;;;;;13.40;6.38;;;26.10;99.90;;;;;;4996723;28;20179;-91
2022/08/26 09:47:06;;;;;;;19.02;7.88;;;26.10;99.90;;;;;;4995651;28;20689;-91
2022/08/26 09:50:03;;;;;;;24.90;7.90;;;26.20;99.90;;;;;;4996583;28;20209;-92
2022/08/26 09:52:35;;;;;;;17.08;7.45;;;26.20;99.90;;;;;;4996644;28;20179;-92
2022/08/26 09:55:22;;;;;;;21.90;7.97;;;26.30;99.90;;;;;;4996025;28;20182;-91
2022/08/26 09:58:18;;;;;;;20.77;6.55;;;26.40;99.90;;;;;;4996455;28;20183;-91
2022/08/26 10:01:12;;;;;;;15.70;6.85;;;26.40;99.90;;;;;;4993745;28;20573;-92
2022/08/26 10:03:46;;;;;;;24.20;7.55;;;26.50;99.90;;;;;;4979991;28;20273;-92
2022/08/26 10:06:38;;;;;;;24.83;8.00;;;26.50;99.90;;;;;;4995991;28;20187;-92
2022/08/26 10:09:06;;;;;;;21.92;7.88;;;26.60;99.90;;;;;;4996486;28;20250;-92
2022/08/26 10:11:59;;;;;;;17.83;7.10;;;26.70;99.90;;;;;;4996545;28;20195;-92
2022/08/26 10:15:08;;;;;;;18.40;7.45;;;26.90;99.90;;;;;;4996164;28;20168;-91
2022/08/26 10:18:07;;;;;;;22.60;7.35;;;27.00;99.90;;;;;;4995762;28;20190;-92
2022/08/26 10:20:49;;;;;;;23.17;7.47;;;27.10;99.90;;;;;;4996142;28;20191;-92
2022/08/26 10:24:01;;;;;;;;;;;;;;;;;;;;;
2022/08/26 10:27:06;;;;;;;17.58;7.18;;;27.20;99.90;;;;;;4987492;28;20242;-91
2022/08/26 10:30:03;;;;;;;16.80;7.18;;;27.40;99.90;;;;;;4977555;28;20210;-91
2022/08/26 10:36:04;;;;;;;20.83;6.90;;;27.40;99.90;;;;;;4993227;28;20184;-92
2022/08/26 10:38:39;;;;;;;25.48;7.80;;;27.60;99.90;;;;;;4996428;28;20631;-92
2022/08/26 10:41:45;;;;;;;23.15;7.25;;;28.00;99.90;;;;;;4997753;28;20219;-91
2022/08/26 10:44:13;;;;;;;16.48;6.00;;;28.30;99.20;;;;;;4938215;28;20678;-92
2022/08/26 10:47:04;;;;;;;16.77;6.47;;;28.50;98.60;;;;;;4979236;28;20172;-93
2022/08/26 10:49:30;;;;;;;21.80;5.85;;;28.50;98.40;;;;;;4976473;28;20243;-92
2022/08/26 10:52:36;;;;;;;22.40;6.97;;;28.50;98.40;;;;;;4976960;28;20176;-92
2022/08/26 10:55:30;;;;;;;21.92;6.13;;;28.50;97.80;;;;;;4986023;28;20261;-92
2022/08/26 10:58:37;;;;;;;28.42;6.97;;;28.50;98.20;;;;;;4996615;28;20187;-93
2022/08/26 11:02:00;;;;;;;27.25;6.63;;;28.30;97.90;;;;;;4999219;28;20212;-92
2022/08/26 11:08:35;;;;;;;16.90;6.32;;;28.10;97.90;;;;;;4998408;28;20238;-91
2022/08/26 11:14:37;;;;;;;17.52;6.05;;;28.10;97.70;;;;;;4997056;28;20206;-92
2022/08/26 11:17:17;;;;;;;21.30;6.60;;;28.20;97.80;;;;;;4994800;28;20186;-91
2022/08/26 11:23:25;;;;;;;21.88;6.32;;;28.10;97.60;;;;;;5003740;28;20206;-93
2022/08/26 11:29:11;;;;;;;24.80;6.28;;;28.10;97.30;;;;;;4964573;29;20189;-94
2022/08/26 11:35:55;;;;;;;18.63;6.45;;;28.40;97.60;;;;;;4963366;29;20220;-91
2022/08/26 11:38:41;;;;;;;25.38;6.03;;;28.50;96.80;;;;;;4951622;29;20181;-93
2022/08/26 11:41:28;;;;;;;20.23;5.82;;;28.60;96.10;;;;;;4984487;28;20275;-93
2022/08/26 11:47:09;;;;;;;15.68;5.68;;;29.20;96.10;;;;;;4966058;29;20600;-93
2022/08/26 11:49:50;;;;;;;18.73;5.65;;;29.50;95.10;;;;;;4963757;29;20264;-93
2022/08/26 11:52:24;;;;;;;17.17;5.93;;;29.70;94.70;;;;;;4966091;29;20191;-93
2022/08/26 11:55:08;;;;;;;17.20;6.45;;;29.90;94.30;;;;;;4964145;29;20168;-91
2022/08/26 11:57:50;;;;;;;16.48;5.68;;;30.10;94.80;;;;;;4973313;28;20173;-94
2022/08/26 12:00:42;;;;;;;17.27;5.10;;;30.30;93.40;;;;;;4991279;23;20651;-91
2022/08/26 12:03:10;;;;;;;15.48;5.03;;;30.30;92.30;;;;;;4991499;28;20282;-91
2022/08/26 12:05:42;;;;;;;15.48;4.75;;;30.10;92.60;;;;;;4996949;28;20243;-93
2022/08/26 12:08:12;;;;;;;21.15;5.05;;;29.80;91.90;;;;;;4996851;28;20602;-96
2022/08/26 12:10:39;;;;;;;15.98;4.38;;;29.50;92.70;;;;;;4995512;28;20183;-91
2022/08/26 12:13:06;;;;;;;17.73;4.85;;;29.30;93.30;;;;;;4994478;28;20176;-91
2022/08/26 12:15:33;;;;;;;22.13;5.57;;;29.10;93.40;;;;;;4976973;28;20216;-92
2022/08/26 12:18:17;;;;;;;20.48;5.35;;;29.00;93.40;;;;;;4977743;28;20172;-95
2022/08/26 12:20:53;;;;;;;17.40;5.45;;;28.90;93.80;;;;;;4975717;28;20176;-92
2022/08/26 12:23:34;;;;;;;16.90;5.15;;;28.80;93.00;;;;;;4976982;28;20180;-94
2022/08/26 12:26:41;;;;;;;14.52;5.13;;;28.90;93.30;;;;;;4975985;28;20175;-93
2022/08/26 12:29:26;;;;;;;11.98;4.75;;;28.90;93.70;;;;;;4972509;28;20619;-91
2022/08/26 12:32:07;;;;;;;19.25;5.13;;;28.90;93.30;;;;;;4994743;28;20622;-92
2022/08/26 12:34:34;;;;;;;17.33;4.95;;;28.90;93.50;;;;;;4994336;28;20211;-95
2022/08/26 12:37:00;;;;;;;16.85;4.85;;;28.80;93.90;;;;;;4996510;28;20231;-94
2022/08/26 12:39:27;;;;;;;9.43;4.57;;;28.80;93.10;;;;;;4989128;28;20192;-93
2022/08/26 12:42:14;;;;;;;15.73;4.63;;;28.80;92.80;;;;;;4995050;28;20191;-92
2022/08/26 12:44:56;;;;;;;11.65;4.80;;;28.80;93.10;;;;;;4992184;28;20200;-95
2022/08/26 12:47:33;;;;;;;17.92;5.25;;;28.90;92.50;;;;;;4994635;28;20168;-89
2022/08/26 12:50:09;;;;;;;15.57;5.05;;;29.00;92.00;;;;;;4994825;28;20179;-90
2022/08/26 12:52:57;;;;;;;13.00;4.60;;;29.10;92.20;;;;;;4995296;28;20163;-94
2022/08/26 12:55:23;;;;;;;15.93;4.57;;;29.10;92.40;;;;;;4994696;28;20292;-90
2022/08/26 12:57:49;;;;;;;15.52;4.80;;;29.10;92.60;;;;;;4976171;28;20173;-90
2022/08/26 13:00:40;;;;;;;17.90;5.70;;;29.10;92.60;;;;;;4986177;28;20690;-95
2022/08/26 13:03:32;;;;;;;17.70;5.57;;;29.10;92.90;;;;;;4980605;28;20203;-95
2022/08/26 13:06:18;;;;;;;19.70;5.20;;;29.10;92.60;;;;;;4998125;28;20163;-93
2022/08/26 13:08:58;;;;;;;16.83;4.90;;;29.10;92.50;;;;;;4980400;28;20183;-94
2022/08/26 13:11:38;;;;;;;14.05;4.20;;;29.10;92.40;;;;;;4983867;28;20179;-95
2022/08/26 13:14:09;;;;;;;18.42;5.10;;;29.00;92.20;;;;;;5018298;28;20247;-94
2022/08/26 13:16:36;;;;;;;15.68;4.57;;;28.80;92.30;;;;;;4997974;28;20207;-95
2022/08/26 13:19:05;;;;;;;12.20;4.60;;;28.70;92.20;;;;;;4997535;28;20185;-94
2022/08/26 13:21:35;;;;;;;14.05;4.20;;;28.60;92.60;;;;;;4996794;28;20197;-94
2022/08/26 13:24:06;;;;;;;14.02;4.85;;;28.50;93.30;;;;;;5014975;28;20232;-94
2022/08/26 13:26:32;;;;;;;17.05;5.20;;;28.40;93.70;;;;;;5014811;28;20258;-96
2022/08/26 13:28:58;;;;;;;20.63;5.30;;;28.30;92.80;;;;;;4998846;28;20178;-94
2022/08/26 13:31:26;;;;;;;15.95;4.85;;;28.30;92.80;;;;;;5014528;28;20175;-95
2022/08/26 13:33:51;;;;;;;15.02;4.80;;;28.20;93.20;;;;;;4998057;28;20306;-96
2022/08/26 13:36:17;;;;;;;14.43;4.47;;;28.10;93.50;;;;;;4997992;28;20207;-96
2022/08/26 13:38:43;;;;;;;12.48;4.80;;;28.10;93.80;;;;;;4997794;28;20185;-96
2022/08/26 13:41:08;;;;;;;19.25;4.97;;;28.00;94.40;;;;;;4997227;28;20182;-96